Aérodrome :
LOGIN :

S'inscrire | Disclaimer

   EN    FR    IT 

 










Légende :    VFR   VFR Marginal   IFR   IFR Intensif   IFR Très Intensif
Visi : 
Plafond : 
>= 8 km
>= 3000ft
5 à 8 km
1000 à 3000 ft
1500m à 5 km
500 à 1000 ft
800 à 1500m
200 à 500 ft
< 800m
< 200 ft
Symboles :   Orages  Brouillard  Fortes neiges  Fortes précipitations  Vent > 20 kt
SIGMETs :   Divers  Orages  Givrage  Turbulence  Onde Orograph.  Cendres Volcan.






- Altitude de l'aérodrome : 989 ft
- Code IATA : TRN


LIMF - Torino Caselle

DERNIER METAR :
  • 041020Z 10007KT 070V130 9999 SCT140 25/10 Q1006

METARs EXPIRÉS :
  • 040950Z 12006KT 060V140 CAVOK 24/12 Q1006
  • 040920Z VRB03KT CAVOK 24/13 Q1006
  • 040850Z VRB02KT CAVOK 23/12 Q1006
  • 040820Z VRB02KT CAVOK 22/14 Q1006
  • 040750Z 28004KT 250V310 CAVOK 20/14 Q1005
  • 040720Z VRB01KT CAVOK 20/15 Q1006

TAF TAF LIMF
Valide du 04 à 06h jusqu'au 05 à 06h UTC


040500Z 0406/0506 VRB05KT 9999 BKN070



MET'MAP, la Météo Aéronautique d'un coup d'oeil ! - Copyright ORBIFLY Décembre 2007 - Disclaimer

ORBIFLY MET'MAP TEAM :

Programmation & Développement : Alexandra Zaïnal
Sur une idée originale de : Baudouin d'Aumeries
Assistance à la programmation : Marc-Olivier Méhu
Soutien technique & logistique : Manuel Goepfert

Contact : metmap@orbifly.com




SOURCES & CREDITS :

   NOAA